TTPPSYCJ

Guest
Details From TTPP - Trinidad/Piarco Intl
To SYCJ - CHEDDI JAGAN INTL
Flight Number -
Tags decoded
Created
Modified
Stats Distance 311 nm / 577 km
Max Altitude 0 ft / 0 m
Waypoints 7
Social Downloads 2
Likes 0
Share VATSIM

Download

Looking for another format? Having issues loading an existing format? Contact us
Advertisement - Login to hide

Notes

Requested: TTPP POS UA324 TIM SYCJ

Route

TTPP POS UA324 ORANI TIM SYCJ

ID Type Via Altitude Latitude Longitude Leg Dist Tot Dist Heading (true) Name
O TTPP APT - 0 ft / 0 m 10.59537˚ -61.33724˚ - 0 nm - Trinidad/Piarco Intl
POS VOR - 0 ft / 0 m 10.46639˚ -61.39236˚ 8 nm 8 nm 203° / 203° PIARCO VOR-DME
MINDA FIX UA324 (AWY-HI) 0 ft / 0 m 8.91667˚ -60.15972˚ 118 nm 126 nm 142° / 142° -
ALBEP FIX UA324 (AWY-HI) 0 ft / 0 m 8.31772˚ -59.68700˚ 45 nm 172 nm 142° / 142° -
ORANI FIX UA324 (AWY-HI) 0 ft / 0 m 7.48244˚ -59.03106˚ 63 nm 235 nm 142° / 142° -
TIM NDB - 0 ft / 0 m 6.51294˚ -58.24762˚ 74 nm 310 nm 141° / 141° TIMEHRI NDB
O SYCJ APT - 0 ft / 0 m 6.49887˚ -58.25455˚ 0 nm 311 nm 206° / 206° CHEDDI JAGAN INTL

Altitude Profile

Advertisement - Login to hide

Weather


0- 5 10 15 20 25 30 35+ Temperature / ° C

Clouds and Precipitation
Forecast for 2018-06-20 12:00 UTC. Updated 4 hours ago

Ground ~20,000 ft ~40,000 ft Winds

TTPP

Details ICAO TTPP (POS)
Name Trinidad/Piarco Intl
Region Trinidad and Tobago
Timezone America/Port_of_Spain (UTC-4.0)
Stats Elevation 57 ft / 17 m (AMSL)
Location 10.595370° -61.337239°
Runways 1
Magnetic Variation 15.029° W

METAR

TTPP 201300Z 00000KT 1000 SHRA FEW002 FEW010CB BKN015 24/23 Q1017 BECMG 1320Z 5000 SHRA RMK CB SE

Decode

TAF

Not found

Departure Runways

ID Width Length Bearing (true) Bearing (mag) Surface Threshold Offset Overrun Length
10 151 ft / 46 m 10,486 ft / 3,196 m 89.83° 104.86° Asphalt 0 ft / 0 m 79 ft / 24 m
28 151 ft / 46 m 10,486 ft / 3,196 m 269.84° 284.87° Asphalt 0 ft / 0 m 184 ft / 56 m

SYCJ

Details ICAO SYCJ (GEO)
Name CHEDDI JAGAN INTL
Region Guyana
Timezone America/Guyana (UTC-4.0)
Stats Elevation 95 ft / 29 m (AMSL)
Location 6.498874° -58.254550°
Runways 2
Magnetic Variation 16.418° W

METAR

SYCJ 201300Z 11004KT 9999 BKN018 28/25 Q1015 NOSIG

Decode

TAF

Not found

Destination Runways

ID Width Length Bearing (true) Bearing (mag) Surface Threshold Offset Overrun Length
06 148 ft / 45 m 7,466 ft / 2,276 m 44.78° 61.20° Asphalt 0 ft / 0 m 190 ft / 58 m
11 148 ft / 45 m 4,997 ft / 1,523 m 89.99° 106.41° Asphalt 0 ft / 0 m 0 ft / 0 m
24 148 ft / 45 m 7,466 ft / 2,276 m 224.78° 241.20° Asphalt 0 ft / 0 m 205 ft / 62 m
29 148 ft / 45 m 4,997 ft / 1,523 m 269.99° 286.41° Asphalt 0 ft / 0 m 0 ft / 0 m

Approach Navaids

Runway Type Ident Frequency Range Bearing (true) Bearing (mag) Slope Elevation
06 Localiser ITIM 109.30 MHz 18 nm / 33 km 44.78° 61.20° - 95 ft / 29 m (AMSL)
06 Glidescope ITIM 109.30 MHz 10 nm / 19 km 44.78° 61.20° 2.50° 95 ft / 29 m (AMSL)

Popular Alternatives